Time;durP1;ratioP1;P1;durP2;ratioP2;P2;SDS_P1;SDS_P2;PMS_P1;PMS_P2;Temp;Humidity;BMP_temperature;BMP_pressure;BME280_temperature;BME280_humidity;BME280_pressure;Samples;Min_cycle;Max_cycle;Signal;HPM_P1;HPM_P2
2022/02/20 00:01:47;;;;;;;9.15;3.85;;;;;;;0.32;67.74;99798.50;5094454;28;20055;-71
2022/02/20 00:04:16;;;;;;;8.52;3.65;;;;;;;0.24;67.95;99808.22;5094529;28;20040;-71
2022/02/20 00:06:46;;;;;;;11.00;4.43;;;;;;;0.24;67.72;99812.41;5094483;28;20048;-71
2022/02/20 00:09:15;;;;;;;11.25;4.22;;;;;;;0.29;67.93;99809.28;5094398;28;20047;-71
2022/02/20 00:11:44;;;;;;;12.47;4.23;;;;;;;0.47;68.09;99806.66;5093939;28;20040;-70
2022/02/20 00:14:13;;;;;;;11.70;4.03;;;;;;;0.38;67.44;99813.81;5094591;28;20067;-71
2022/02/20 00:16:42;;;;;;;10.03;4.13;;;;;;;0.24;67.69;99812.41;5094288;28;20036;-71
2022/02/20 00:19:11;;;;;;;9.23;4.10;;;;;;;0.16;68.02;99816.22;5094129;28;20040;-71
2022/02/20 00:21:40;;;;;;;13.00;4.32;;;;;;;-0.01;68.22;99821.41;5094395;28;20044;-71
2022/02/20 00:24:11;;;;;;;9.02;4.07;;;;;;;0.10;68.20;99824.34;5094102;28;20044;-71
2022/02/20 00:26:40;;;;;;;10.52;4.10;;;;;;;0.17;68.27;99820.47;5094059;28;20051;-70
2022/02/20 00:29:09;;;;;;;9.98;3.58;;;;;;;0.06;68.71;99826.66;5094358;28;20036;-70
2022/02/20 00:31:38;;;;;;;7.35;2.97;;;;;;;-0.11;68.62;99819.28;5093082;28;20109;-71
2022/02/20 00:34:07;;;;;;;8.07;2.97;;;;;;;0.03;68.74;99826.53;5093984;28;20046;-71
2022/02/20 00:36:36;;;;;;;10.13;4.03;;;;;;;0.10;68.51;99826.03;5094028;28;20706;-71
2022/02/20 00:39:05;;;;;;;9.20;3.77;;;;;;;0.22;68.74;99821.50;5094178;28;20110;-70
2022/02/20 00:41:35;;;;;;;8.90;3.58;;;;;;;0.19;68.35;99818.88;5093001;28;20273;-71
2022/02/20 00:44:05;;;;;;;9.35;3.58;;;;;;;0.09;68.23;99776.63;5094170;28;20048;-70
2022/02/20 00:46:34;;;;;;;12.30;3.80;;;;;;;0.32;68.31;99811.91;5094037;28;20040;-71
2022/02/20 00:49:03;;;;;;;9.38;3.63;;;;;;;0.40;68.25;99815.59;5093860;28;20044;-71
2022/02/20 00:51:32;;;;;;;8.90;3.90;;;;;;;0.46;68.19;99809.97;5094193;28;20071;-71
2022/02/20 00:54:03;;;;;;;12.95;4.47;;;;;;;0.62;68.04;99812.31;5092465;28;20287;-71
2022/02/20 00:56:32;;;;;;;11.30;4.65;;;;;;;0.34;68.08;99807.81;5093753;28;20052;-71
2022/02/20 00:59:03;;;;;;;11.27;4.15;;;;;;;0.06;68.36;99806.59;5093625;28;20128;-70
2022/02/20 01:01:32;;;;;;;10.27;4.43;;;;;;;-0.17;68.62;99801.44;5092472;28;20052;-70
2022/02/20 01:04:02;;;;;;;14.10;4.20;;;;;;;-0.13;69.13;99800.81;5092388;28;20043;-70
2022/02/20 01:06:31;;;;;;;;;;;;;;;-0.08;69.18;99799.34;5092869;28;20044;-71
2022/02/20 01:09:00;;;;;;;8.37;3.43;;;;;;;-0.14;69.00;99799.06;5109852;28;20357;-70
2022/02/20 01:11:29;;;;;;;9.68;3.97;;;;;;;-0.25;69.39;99790.25;5093550;28;20044;-70
2022/02/20 01:13:58;;;;;;;7.28;3.05;;;;;;;-0.14;69.62;99781.50;5092313;28;20047;-71
2022/02/20 01:16:28;;;;;;;9.82;3.70;;;;;;;-0.21;69.49;99777.03;5093823;28;20478;-71
2022/02/20 01:18:58;;;;;;;13.73;5.03;;;;;;;-0.22;69.92;99774.47;5093972;28;20044;-70
2022/02/20 01:21:28;;;;;;;10.68;4.82;;;;;;;-0.09;69.78;99764.16;5092603;28;20075;-71
2022/02/20 01:23:59;;;;;;;9.82;4.38;;;;;;;-0.03;69.59;99766.94;5096248;28;20054;-70
2022/02/20 01:26:28;;;;;;;9.30;4.60;;;;;;;-0.06;69.56;99762.66;5097620;28;20102;-71
2022/02/20 01:28:57;;;;;;;11.77;4.43;;;;;;;-0.18;69.82;99769.66;5096909;28;20705;-70
2022/02/20 01:31:26;;;;;;;13.47;4.50;;;;;;;-0.10;69.96;99768.31;5097777;28;20486;-71
2022/02/20 01:33:56;;;;;;;;;;;;;;;-0.20;70.11;99758.69;5098124;28;20285;-70
2022/02/20 01:36:25;;;;;;;8.82;3.80;;;;;;;-0.21;70.03;99751.97;5097689;28;20247;-70
2022/02/20 01:38:55;;;;;;;;;;;;;;;-0.37;70.34;99754.59;5096383;28;20135;-70
2022/02/20 01:41:24;;;;;;;;;;;;;;;-0.45;70.53;99748.41;5096812;28;19920;-70
2022/02/20 01:43:55;;;;;;;6.65;2.78;;;;;;;-0.43;70.75;99744.31;5096366;28;20312;-70
2022/02/20 01:46:27;;;;;;;6.80;3.25;;;;;;;-0.35;71.06;99737.97;5095978;28;20127;-70
2022/02/20 01:48:57;;;;;;;10.38;3.97;;;;;;;-0.35;70.72;99748.00;5097386;28;20048;-70
2022/02/20 01:51:26;;;;;;;8.82;3.00;;;;;;;-0.27;71.06;99746.69;5095930;28;20048;-70
2022/02/20 01:53:56;;;;;;;7.85;3.70;;;;;;;-0.15;71.20;99742.22;5097001;28;20056;-70
2022/02/20 01:56:25;;;;;;;11.07;3.47;;;;;;;-0.22;70.98;99735.22;5095495;28;20042;-70
2022/02/20 01:59:10;;;;;;;10.00;4.00;;;;;;;-0.30;71.01;99725.63;5095602;28;20128;-70
2022/02/20 02:02:05;;;;;;;8.77;4.00;;;;;;;-0.37;71.08;99731.19;5080648;28;20577;-70
2022/02/20 02:04:48;;;;;;;10.45;4.30;;;;;;;-0.39;71.05;99728.63;5095985;28;20048;-69
2022/02/20 02:07:18;;;;;;;13.27;5.07;;;;;;;-0.45;71.31;99730.00;5096532;28;20097;-70
2022/02/20 02:09:54;;;;;;;12.02;4.50;;;;;;;-0.37;71.32;99722.03;5095551;28;20055;-70
2022/02/20 02:12:35;;;;;;;9.13;4.27;;;;;;;-0.20;71.46;99727.75;5096990;28;20051;-70
2022/02/20 02:15:15;;;;;;;10.85;4.40;;;;;;;-0.12;71.21;99722.25;5096871;28;20414;-69
2022/02/20 02:17:55;;;;;;;11.73;4.13;;;;;;;-0.30;71.07;99716.47;5096549;28;20059;-72
2022/02/20 02:20:25;;;;;;;11.53;4.70;;;;;;;-0.47;71.29;99711.53;5096453;28;20059;-69
2022/02/20 02:23:06;;;;;;;14.02;5.10;;;;;;;-0.30;71.48;99706.44;5096626;28;20281;-70
2022/02/20 02:25:57;;;;;;;14.80;4.63;;;;;;;-0.52;71.75;99701.31;5096012;28;20044;-69
2022/02/20 02:28:52;;;;;;;12.07;4.88;;;;;;;-0.51;71.67;99715.56;5080136;28;20406;-69
2022/02/20 02:31:23;;;;;;;13.93;5.15;;;;;;;-0.34;71.49;99704.63;5095145;28;20070;-70
2022/02/20 02:33:53;;;;;;;10.23;4.72;;;;;;;-0.48;70.82;99705.66;5094512;28;20040;-70
2022/02/20 02:36:22;;;;;;;13.70;4.80;;;;;;;-0.75;71.65;99701.97;5095380;28;20083;-69
2022/02/20 02:38:53;;;;;;;10.40;4.63;;;;;;;-0.65;72.02;99708.25;5096109;28;20123;-70
2022/02/20 02:41:23;;;;;;;9.45;4.20;;;;;;;-0.66;71.67;99707.38;5096176;28;20101;-69
2022/02/20 02:43:57;;;;;;;13.25;4.30;;;;;;;-0.68;71.97;99701.44;5095209;28;20393;-70
2022/02/20 02:46:28;;;;;;;10.27;4.00;;;;;;;-0.63;71.86;99712.53;5095065;28;20135;-70
2022/02/20 02:48:58;;;;;;;9.20;3.90;;;;;;;-0.49;71.50;99703.94;5096628;28;20039;-70
2022/02/20 02:51:28;;;;;;;9.50;4.13;;;;;;;-0.62;71.84;99709.22;5094798;28;20054;-70
2022/02/20 02:53:59;;;;;;;7.93;3.42;;;;;;;-0.58;71.82;99708.56;5094935;28;20067;-69
2022/02/20 02:56:28;;;;;;;11.35;4.05;;;;;;;-0.54;71.84;99700.38;5094362;28;20058;-69
2022/02/20 02:58:57;;;;;;;11.10;4.50;;;;;;;-0.77;71.82;99696.03;5095802;28;20047;-69
2022/02/20 03:01:26;;;;;;;10.93;3.97;;;;;;;-0.75;72.04;99694.44;5096024;28;20079;-69
2022/02/20 03:03:56;;;;;;;8.00;4.10;;;;;;;-0.69;72.26;99705.59;5095626;28;20292;-70
2022/02/20 03:06:26;;;;;;;9.65;4.00;;;;;;;-0.50;72.26;99704.72;5094744;28;20405;-69
2022/02/20 03:09:11;;;;;;;6.72;3.80;;;;;;;-0.49;72.14;99708.09;5077836;28;20051;-69
2022/02/20 03:11:41;;;;;;;12.30;4.72;;;;;;;-0.53;72.05;99707.13;5094652;28;20101;-69
2022/02/20 03:14:17;;;;;;;9.98;4.03;;;;;;;-0.53;72.26;99709.63;5094634;28;20054;-69
2022/02/20 03:16:46;;;;;;;10.13;4.63;;;;;;;-0.67;72.08;99708.16;5094522;28;20517;-69
2022/02/20 03:19:15;;;;;;;6.83;3.53;;;;;;;-0.72;72.28;99715.47;5094831;28;20683;-69
2022/02/20 03:21:44;;;;;;;14.37;5.40;;;;;;;-0.62;72.14;99705.88;5095855;28;20273;-70
2022/02/20 03:24:20;;;;;;;7.63;3.90;;;;;;;-0.44;72.25;99715.03;5094147;28;20141;-69
2022/02/20 03:26:51;;;;;;;12.93;4.60;;;;;;;-0.41;71.66;99706.78;5094085;28;20056;-70
2022/02/20 03:29:27;;;;;;;9.75;3.55;;;;;;;-0.55;71.74;99713.69;5093962;28;20044;-69
2022/02/20 03:31:57;;;;;;;9.85;4.40;;;;;;;-0.57;72.05;99705.25;5093969;28;20040;-69
2022/02/20 03:34:26;;;;;;;7.95;3.30;;;;;;;-0.75;72.41;99701.97;5095045;28;20051;-69
2022/02/20 03:36:59;;;;;;;8.40;3.53;;;;;;;-0.81;72.47;99704.19;5094285;28;20401;-69
2022/02/20 03:39:36;;;;;;;7.70;3.97;;;;;;;-0.65;73.23;99701.59;5093986;28;20382;-69
2022/02/20 03:42:11;;;;;;;10.68;4.53;;;;;;;-0.92;72.79;99656.13;5094335;28;20047;-70
2022/02/20 03:44:55;;;;;;;9.30;3.72;;;;;;;-0.70;73.16;99703.84;5093719;28;20047;-70
2022/02/20 03:47:25;;;;;;;10.70;4.43;;;;;;;-0.58;72.77;99702.69;5092692;28;20044;-69
2022/02/20 03:49:57;;;;;;;8.30;3.83;;;;;;;-0.65;72.85;99706.59;5094997;28;20516;-70
2022/02/20 03:52:32;;;;;;;9.07;4.07;;;;;;;-0.68;73.04;99694.78;5093844;28;20044;-70
2022/02/20 03:55:06;;;;;;;11.05;4.78;;;;;;;-0.53;72.99;99692.09;5093559;28;20052;-70
2022/02/20 03:57:40;;;;;;;12.80;5.40;;;;;;;-0.56;73.24;99691.09;5076827;28;20098;-70
2022/02/20 04:00:18;;;;;;;13.98;4.97;;;;;;;-0.42;73.09;99688.38;5094461;28;20036;-69
2022/02/20 04:02:57;;;;;;;14.10;5.47;;;;;;;-0.46;72.88;99684.03;5093374;28;20490;-69
2022/02/20 04:05:26;;;;;;;11.33;4.23;;;;;;;-0.45;72.62;99672.34;5094531;28;20072;-69
2022/02/20 04:07:55;;;;;;;13.20;4.93;;;;;;;-0.54;72.71;99670.31;5094492;28;20304;-69
2022/02/20 04:10:28;;;;;;;15.13;5.47;;;;;;;-0.59;72.75;99645.84;5094403;28;20059;-69
2022/02/20 04:13:00;;;;;;;14.65;6.78;;;;;;;-0.51;73.00;99650.41;5093278;28;20047;-69
2022/02/20 04:15:40;;;;;;;14.38;5.50;;;;;;;-0.43;73.14;99634.00;5093515;28;20131;-69
2022/02/20 04:18:18;;;;;;;13.98;4.90;;;;;;;-0.45;72.89;99638.13;5094614;28;20048;-70
2022/02/20 04:20:58;;;;;;;17.55;6.53;;;;;;;-0.37;72.85;99644.31;5093195;28;20044;-70
2022/02/20 04:23:30;;;;;;;11.50;5.82;;;;;;;-0.53;72.96;99652.00;5093627;28;20090;-69
2022/02/20 04:26:04;;;;;;;14.95;5.43;;;;;;;-0.52;73.44;99650.31;5093053;28;20044;-70
2022/02/20 04:28:35;;;;;;;10.52;4.95;;;;;;;-0.49;73.33;99656.34;5093194;28;20389;-69
2022/02/20 04:31:03;;;;;;;11.73;5.07;;;;;;;-0.32;73.42;99647.88;5094308;28;20063;-69
2022/02/20 04:33:34;;;;;;;14.57;4.80;;;;;;;-0.25;73.38;99639.81;5092837;28;20044;-69
2022/02/20 04:36:03;;;;;;;;;;;;;;;-0.16;73.24;99635.16;5093279;28;20537;-69
2022/02/20 04:38:33;;;;;;;14.07;4.75;;;;;;;-0.14;73.03;99638.56;5093067;28;19920;-70
2022/02/20 04:41:10;;;;;;;11.38;4.68;;;;;;;-0.24;73.17;99640.66;5092663;28;20044;-70
2022/02/20 04:43:41;;;;;;;12.13;5.50;;;;;;;-0.28;73.36;99632.16;5092737;28;20127;-70
2022/02/20 04:46:11;;;;;;;11.23;5.45;;;;;;;-0.27;73.52;99625.50;5093017;28;20076;-70
2022/02/20 04:48:41;;;;;;;11.35;5.50;;;;;;;-0.43;73.51;99628.16;5093545;28;20541;-70
2022/02/20 04:51:23;;;;;;;10.80;4.72;;;;;;;-0.43;73.66;99610.63;5092566;28;20102;-70
2022/02/20 04:53:52;;;;;;;8.47;4.13;;;;;;;-0.48;74.14;99609.56;5092866;28;20089;-69
2022/02/20 04:56:24;;;;;;;15.88;5.35;;;;;;;-0.42;74.11;99600.66;5092675;28;20048;-70
2022/02/20 04:58:53;;;;;;;10.30;5.20;;;;;;;-0.29;74.04;99605.34;5092662;28;20048;-69
2022/02/20 05:01:34;;;;;;;12.13;5.60;;;;;;;-0.19;73.75;99599.06;5092499;28;20090;-69
2022/02/20 05:04:14;;;;;;;;;;;;;;;-0.14;73.80;99598.47;5094060;28;20052;-69
2022/02/20 05:06:47;;;;;;;12.50;5.82;;;;;;;-0.19;73.51;99594.03;5092776;28;19920;-70
2022/02/20 05:09:21;;;;;;;12.70;4.93;;;;;;;-0.26;73.80;99575.41;5092720;28;20406;-72
2022/02/20 05:12:03;;;;;;;13.40;4.68;;;;;;;-0.18;73.47;99591.63;5092355;28;20055;-71
2022/02/20 05:14:33;;;;;;;12.45;5.82;;;;;;;-0.15;73.64;99586.72;5092952;28;20409;-71
2022/02/20 05:17:14;;;;;;;11.73;4.85;;;;;;;-0.11;73.85;99588.56;5093464;28;20055;-72
2022/02/20 05:19:48;;;;;;;12.10;5.28;;;;;;;-0.14;74.04;99593.44;5092584;28;20044;-71
2022/02/20 05:22:18;;;;;;;11.02;4.68;;;;;;;0.04;74.04;99582.41;5092464;28;20040;-71
2022/02/20 05:24:52;;;;;;;9.85;4.53;;;;;;;0.16;74.00;99585.41;5092605;28;20397;-72
2022/02/20 05:27:23;;;;;;;11.77;4.13;;;;;;;0.25;73.98;99563.16;5093756;28;20055;-72
2022/02/20 05:29:55;;;;;;;10.43;4.78;;;;;;;0.34;74.18;99576.06;5092221;28;20052;-71
2022/02/20 05:32:25;;;;;;;11.25;5.35;;;;;;;0.25;73.68;99568.19;5092204;28;20052;-71
2022/02/20 05:35:21;;;;;;;9.20;3.72;;;;;;;0.28;74.43;99588.38;5091449;28;20118;-72
2022/02/20 05:37:51;;;;;;;9.50;4.65;;;;;;;0.29;74.41;99595.13;5092194;28;20397;-71
2022/02/20 05:40:25;;;;;;;14.60;4.90;;;;;;;0.29;74.44;99585.09;5092350;28;20131;-71
2022/02/20 05:42:58;;;;;;;10.73;5.30;;;;;;;0.48;74.28;99592.53;5092324;28;20056;-71
2022/02/20 05:45:31;;;;;;;8.63;3.80;;;;;;;0.62;74.79;99593.88;5092105;28;20048;-72
2022/02/20 05:48:09;;;;;;;5.38;2.78;;;;;;;1.17;75.66;99592.53;5092116;28;20040;-71
2022/02/20 05:50:55;;;;;;;6.40;3.22;;;;;;;1.80;77.22;99595.50;5092439;28;20480;-72
2022/02/20 05:53:28;;;;;;;7.88;3.13;;;;;;;2.01;77.28;99628.91;5092308;28;20154;-72
2022/02/20 05:55:57;;;;;;;8.40;3.85;;;;;;;2.04;77.60;99641.56;5092569;28;20533;-72
2022/02/20 05:58:31;;;;;;;9.20;3.72;;;;;;;2.11;78.40;99635.94;5091833;28;20056;-73
2022/02/20 06:01:02;;;;;;;8.52;3.35;;;;;;;2.22;78.02;99639.63;5091890;28;20097;-73
2022/02/20 06:03:32;;;;;;;7.38;3.50;;;;;;;2.29;78.67;99635.63;5092062;28;20052;-72
2022/02/20 06:06:11;;;;;;;;;;;;;;;2.33;79.40;99635.78;5093774;28;20044;-72
2022/02/20 06:09:04;;;;;;;4.10;2.38;;;;;;;2.35;79.73;99629.13;5087389;28;19964;-72
2022/02/20 06:11:44;;;;;;;7.15;3.42;;;;;;;2.40;79.69;99642.72;5095601;28;20040;-72
2022/02/20 06:14:26;;;;;;;8.23;3.03;;;;;;;2.41;80.00;99654.50;5095767;28;20040;-72
2022/02/20 06:17:11;;;;;;;7.75;3.30;;;;;;;2.38;79.56;99644.34;5095508;28;20051;-70
2022/02/20 06:19:51;;;;;;;5.90;2.90;;;;;;;2.43;79.58;99652.88;5095873;28;20044;-71
2022/02/20 06:22:31;;;;;;;8.27;3.15;;;;;;;2.50;80.61;99658.97;5095310;28;20520;-71
2022/02/20 06:25:21;;;;;;;5.15;2.85;;;;;;;2.45;80.61;99642.84;5096477;28;20074;-70
2022/02/20 06:27:54;;;;;;;5.43;2.95;;;;;;;2.52;80.14;99658.19;5095363;28;20509;-71
2022/02/20 06:30:29;;;;;;;6.38;3.08;;;;;;;2.56;80.56;99667.59;5095489;28;20055;-70
2022/02/20 06:32:58;;;;;;;5.78;2.65;;;;;;;2.74;81.23;99664.75;5095181;28;20040;-70
2022/02/20 06:35:27;;;;;;;7.80;2.85;;;;;;;2.93;80.93;99671.19;5096782;28;20389;-70
2022/02/20 06:37:56;;;;;;;4.43;2.17;;;;;;;3.06;81.86;99679.16;5096218;28;20044;-71
2022/02/20 06:40:25;;;;;;;6.35;2.05;;;;;;;3.18;81.58;99673.59;5095180;28;20482;-70
2022/02/20 06:42:55;;;;;;;5.03;2.50;;;;;;;3.24;81.55;99682.19;5095474;28;20424;-71
2022/02/20 06:45:29;;;;;;;6.70;2.90;;;;;;;3.29;81.65;99677.25;5094928;28;20063;-71
2022/02/20 06:48:01;;;;;;;5.72;2.63;;;;;;;3.33;81.69;99686.66;5096283;28;20123;-71
2022/02/20 06:50:49;;;;;;;5.50;3.03;;;;;;;3.39;82.44;99680.09;5095171;28;20072;-70
2022/02/20 06:53:29;;;;;;;5.63;2.60;;;;;;;3.45;82.15;99687.00;5094686;28;20040;-70
2022/02/20 06:56:14;;;;;;;7.53;2.20;;;;;;;3.55;82.57;99691.44;5094781;28;20528;-70
2022/02/20 06:58:43;;;;;;;5.63;2.60;;;;;;;3.56;81.93;99685.59;5095923;28;20048;-70
2022/02/20 07:01:13;;;;;;;5.10;2.67;;;;;;;3.61;81.79;99700.84;5095679;28;20090;-70
2022/02/20 07:03:43;;;;;;;5.35;2.50;;;;;;;3.63;82.16;99695.03;5095712;28;20079;-69
2022/02/20 07:06:12;;;;;;;4.00;2.13;;;;;;;3.66;82.20;99697.66;5095945;28;20122;-73
2022/02/20 07:08:40;;;;;;;6.27;2.00;;;;;;;3.58;82.57;99675.53;5095556;28;20273;-71
2022/02/20 07:11:09;;;;;;;6.33;1.93;;;;;;;3.75;82.20;99702.94;5095560;28;20284;-72
2022/02/20 07:13:38;;;;;;;3.40;1.53;;;;;;;3.82;82.00;99701.44;5095482;28;20490;-69
2022/02/20 07:16:07;;;;;;;3.57;1.43;;;;;;;3.88;81.86;99702.47;5095487;28;20043;-69
2022/02/20 07:18:37;;;;;;;4.18;1.58;;;;;;;3.90;81.53;99715.97;5095597;28;20043;-70
2022/02/20 07:21:06;;;;;;;6.40;1.73;;;;;;;3.71;81.89;99663.31;5095072;28;20513;-70
2022/02/20 07:23:35;;;;;;;1.92;1.10;;;;;;;4.00;82.09;99702.78;5095261;28;20042;-70
2022/02/20 07:26:04;;;;;;;7.17;1.50;;;;;;;4.03;82.25;99692.72;5095235;28;20036;-70
2022/02/20 07:28:33;;;;;;;4.07;1.17;;;;;;;4.06;82.64;99692.81;5095174;28;20050;-72
2022/02/20 07:31:02;;;;;;;2.20;0.90;;;;;;;4.08;81.59;99685.25;5095121;28;20032;-71
2022/02/20 07:33:31;;;;;;;2.13;1.13;;;;;;;4.10;82.02;99677.75;5095598;28;20280;-70
2022/02/20 07:36:01;;;;;;;3.83;0.97;;;;;;;4.10;81.93;99682.81;5094972;28;20085;-71
2022/02/20 07:38:31;;;;;;;4.00;1.08;;;;;;;4.10;81.88;99687.84;5095102;28;20293;-71
2022/02/20 07:41:00;;;;;;;2.50;1.15;;;;;;;4.11;81.93;99675.25;5094888;28;20036;-71
2022/02/20 07:43:30;;;;;;;3.95;1.10;;;;;;;4.14;81.96;99684.56;5094889;28;20107;-71
2022/02/20 07:45:59;;;;;;;4.00;1.00;;;;;;;4.16;81.61;99677.88;5093961;28;20490;-71
2022/02/20 07:48:28;;;;;;;5.13;1.07;;;;;;;4.18;82.18;99676.25;5093697;28;20048;-71
2022/02/20 07:50:57;;;;;;;3.37;1.30;;;;;;;4.25;82.16;99673.09;5094745;28;20067;-71
2022/02/20 07:53:27;;;;;;;6.83;1.57;;;;;;;4.38;82.16;99664.97;5095101;28;20462;-71
2022/02/20 07:55:57;;;;;;;3.60;1.40;;;;;;;4.45;82.48;99664.28;5094674;28;20126;-71
2022/02/20 07:58:26;;;;;;;5.80;1.10;;;;;;;4.57;82.45;99652.78;5094970;28;20043;-71
2022/02/20 08:00:56;;;;;;;3.13;1.42;;;;;;;4.68;82.27;99651.34;5094939;28;20044;-71
2022/02/20 08:03:25;;;;;;;3.53;1.60;;;;;;;4.72;82.21;99647.22;5094727;28;20072;-71
2022/02/20 08:05:53;;;;;;;3.97;1.50;;;;;;;4.72;82.26;99642.16;5094829;28;20067;-71
2022/02/20 08:08:23;;;;;;;3.63;1.20;;;;;;;4.72;81.83;99637.97;5094250;28;20276;-71
2022/02/20 08:10:53;;;;;;;4.60;1.37;;;;;;;4.78;82.02;99637.22;5094749;28;20068;-71
2022/02/20 08:13:22;;;;;;;2.47;1.20;;;;;;;4.83;82.02;99635.66;5094396;28;20776;-71
2022/02/20 08:15:52;;;;;;;2.37;1.37;;;;;;;4.86;81.94;99620.56;5093377;28;20489;-71
2022/02/20 08:18:21;;;;;;;2.10;1.10;;;;;;;4.93;82.21;99619.84;5094541;28;20039;-72
2022/02/20 08:20:51;;;;;;;2.22;1.02;;;;;;;4.97;81.90;99624.16;5093167;28;20505;-72
2022/02/20 08:23:40;;;;;;;4.75;1.50;;;;;;;5.04;81.53;99631.03;5094119;28;20039;-72
2022/02/20 08:26:10;;;;;;;2.00;1.10;;;;;;;5.21;81.86;99636.44;5094486;28;20071;-72
2022/02/20 08:28:39;;;;;;;2.38;1.02;;;;;;;5.30;81.49;99629.88;5092911;28;20485;-71
2022/02/20 08:31:10;;;;;;;2.67;1.30;;;;;;;5.38;81.26;99623.28;5092891;28;20090;-72
2022/02/20 08:33:39;;;;;;;3.05;1.30;;;;;;;5.90;80.93;99622.56;5093772;28;20039;-71
2022/02/20 08:36:17;;;;;;;2.95;1.40;;;;;;;6.31;80.78;99622.38;5094313;28;20087;-72
2022/02/20 08:38:46;;;;;;;;;;;;;;;6.48;80.08;99621.78;5093229;28;20048;-71
2022/02/20 08:41:17;;;;;;;4.45;1.35;;;;;;;6.50;79.73;99615.06;5093905;28;19923;-72
2022/02/20 08:43:46;;;;;;;3.40;0.88;;;;;;;6.47;79.29;99620.09;5092949;28;20050;-71
2022/02/20 08:46:15;;;;;;;1.30;0.90;;;;;;;6.48;79.45;99621.78;5093818;28;20043;-71
2022/02/20 08:48:46;;;;;;;4.32;0.98;;;;;;;6.53;78.53;99614.25;5093856;28;20044;-71
2022/02/20 08:51:15;;;;;;;5.30;1.45;;;;;;;6.52;78.79;99623.56;5093771;28;20052;-71
2022/02/20 08:53:44;;;;;;;5.18;1.42;;;;;;;6.42;78.22;99601.44;5093760;28;20040;-71
2022/02/20 08:56:14;;;;;;;2.83;1.35;;;;;;;6.49;78.33;99615.91;5094024;28;20486;-71
2022/02/20 08:58:49;;;;;;;5.13;1.55;;;;;;;6.47;78.04;99619.25;5093722;28;20048;-72
2022/02/20 09:01:18;;;;;;;8.52;1.75;;;;;;;6.37;78.40;99602.19;5093655;28;20075;-71
2022/02/20 09:03:47;;;;;;;4.87;1.77;;;;;;;6.35;78.37;99609.78;5093552;28;20050;-71
2022/02/20 09:06:17;;;;;;;5.72;2.25;;;;;;;6.40;78.34;99608.16;5093515;28;20044;-72
2022/02/20 09:08:49;;;;;;;5.68;1.90;;;;;;;6.49;77.70;99603.22;5093663;28;20051;-72
2022/02/20 09:11:21;;;;;;;3.38;1.83;;;;;;;6.62;77.92;99605.09;5093664;28;20068;-72
2022/02/20 09:13:52;;;;;;;3.67;1.90;;;;;;;6.70;77.56;99606.06;5093542;28;20048;-72
2022/02/20 09:16:20;;;;;;;7.10;2.28;;;;;;;6.81;77.28;99606.19;5093459;28;20075;-72
2022/02/20 09:18:49;;;;;;;5.67;2.27;;;;;;;6.92;76.71;99603.78;5093490;28;20036;-72
2022/02/20 09:21:18;;;;;;;3.15;1.42;;;;;;;6.90;76.83;99595.31;5093799;28;20754;-71
2022/02/20 09:23:47;;;;;;;6.40;1.95;;;;;;;6.87;75.88;99597.81;5075278;28;20486;-72
2022/02/20 09:26:17;;;;;;;4.32;1.98;;;;;;;6.87;76.57;99600.34;5093426;28;20085;-72
2022/02/20 09:28:46;;;;;;;4.90;2.00;;;;;;;6.94;76.23;99597.91;5093353;28;20044;-71
2022/02/20 09:31:16;;;;;;;4.43;2.20;;;;;;;6.87;76.48;99585.97;5093694;28;20085;-72
2022/02/20 09:33:45;;;;;;;6.72;2.13;;;;;;;6.88;76.41;99604.59;5093305;28;20074;-72
2022/02/20 09:36:14;;;;;;;5.07;1.80;;;;;;;6.86;76.86;99583.44;5093643;28;20040;-72
2022/02/20 09:38:44;;;;;;;4.15;1.80;;;;;;;6.89;76.58;99588.53;5093514;28;20284;-71
2022/02/20 09:41:13;;;;;;;3.00;1.30;;;;;;;6.91;76.26;99599.56;5093621;28;20074;-72
2022/02/20 09:43:43;;;;;;;4.15;1.52;;;;;;;6.95;76.09;99606.38;5093471;28;20367;-71
2022/02/20 09:46:12;;;;;;;3.42;1.40;;;;;;;6.98;75.90;99606.41;5096885;28;20054;-72
2022/02/20 09:48:45;;;;;;;3.13;1.52;;;;;;;7.01;75.14;99598.81;5097062;28;20094;-71
2022/02/20 09:51:14;;;;;;;3.05;1.58;;;;;;;7.08;75.14;99600.63;5097610;28;20044;-72
2022/02/20 09:53:43;;;;;;;4.03;1.67;;;;;;;7.13;74.62;99594.75;5096983;28;20088;-72
2022/02/20 09:56:15;;;;;;;2.85;1.38;;;;;;;7.19;74.92;99599.06;5097500;28;20293;-72
2022/02/20 09:58:44;;;;;;;3.00;1.58;;;;;;;7.23;74.78;99595.69;5097235;28;20063;-73
2022/02/20 10:01:15;;;;;;;4.32;1.50;;;;;;;7.27;74.58;99587.31;5097594;28;20043;-73
2022/02/20 10:03:47;;;;;;;2.58;1.45;;;;;;;7.34;74.26;99594.16;5097128;28;20044;-74
2022/02/20 10:06:19;;;;;;;3.65;1.23;;;;;;;7.43;74.12;99589.16;5097489;28;20046;-71
2022/02/20 10:08:50;;;;;;;3.47;1.48;;;;;;;7.48;73.98;99590.06;5097650;28;20478;-73
2022/02/20 10:11:21;;;;;;;3.38;1.55;;;;;;;7.57;73.65;99587.59;5095912;28;20075;-72
2022/02/20 10:13:52;;;;;;;3.20;1.13;;;;;;;7.68;73.90;99575.84;5096737;28;20044;-72
2022/02/20 10:16:24;;;;;;;1.50;1.00;;;;;;;7.77;73.24;99575.94;5096881;28;20067;-72
2022/02/20 10:19:25;;;;;;;2.22;1.00;;;;;;;7.95;71.87;99571.00;5067913;28;20405;-72
2022/02/20 10:22:06;;;;;;;2.20;0.95;;;;;;;8.22;71.50;99564.41;5097043;28;20043;-73
2022/02/20 10:25:00;;;;;;;2.45;1.17;;;;;;;8.39;71.50;99578.13;5096357;28;20048;-72
2022/02/20 10:27:58;;;;;;;1.05;0.70;;;;;;;8.48;69.93;99583.25;5072178;28;20058;-73
2022/02/20 10:30:36;;;;;;;1.92;1.45;;;;;;;8.49;69.58;99567.19;5095408;28;20052;-72
2022/02/20 10:33:10;;;;;;;2.22;1.10;;;;;;;8.60;68.86;99568.06;5096290;28;20047;-72
2022/02/20 10:35:44;;;;;;;1.85;0.98;;;;;;;8.71;69.31;99559.66;5096606;28;20119;-73
2022/02/20 10:38:14;;;;;;;1.30;0.90;;;;;;;8.74;68.08;99562.22;5096192;28;20401;-72
2022/02/20 10:40:45;;;;;;;2.25;1.00;;;;;;;8.67;67.44;99559.63;5096698;28;20040;-72
2022/02/20 10:43:33;;;;;;;1.63;0.80;;;;;;;8.54;66.98;99562.97;5095679;28;20071;-71
2022/02/20 10:46:09;;;;;;;2.00;0.90;;;;;;;8.35;67.06;99551.00;5096118;28;20040;-72
2022/02/20 10:48:40;;;;;;;2.28;0.90;;;;;;;8.23;66.91;99541.53;5096630;28;20054;-72
2022/02/20 10:51:11;;;;;;;2.40;1.10;;;;;;;8.27;67.23;99552.63;5096052;28;20052;-72
2022/02/20 10:53:41;;;;;;;1.30;0.85;;;;;;;8.27;66.17;99545.84;5096175;28;20040;-72
2022/02/20 10:56:10;;;;;;;2.63;0.80;;;;;;;8.38;66.73;99551.00;5095372;28;20052;-72
2022/02/20 10:58:43;;;;;;;2.10;0.80;;;;;;;8.47;67.29;99551.88;5095792;28;20047;-73
2022/02/20 11:01:22;;;;;;;1.75;0.80;;;;;;;8.60;66.69;99538.41;5095866;28;20044;-72
2022/02/20 11:03:51;;;;;;;1.05;0.90;;;;;;;8.75;66.31;99537.63;5096116;28;20482;-72
2022/02/20 11:06:24;;;;;;;1.55;0.88;;;;;;;8.95;66.64;99541.09;5096544;28;20047;-73
2022/02/20 11:08:53;;;;;;;2.45;0.88;;;;;;;9.14;66.15;99531.81;5096119;28;20501;-73
2022/02/20 11:14:02;;;;;;;2.65;1.08;;;;;;;9.47;64.68;99525.94;5096561;28;20127;-74
2022/02/20 11:16:32;;;;;;;2.53;0.90;;;;;;;9.59;63.53;99524.25;5095827;28;20462;-71
2022/02/20 11:19:05;;;;;;;1.50;0.90;;;;;;;9.45;63.23;99518.31;5095462;28;20040;-73
2022/02/20 11:21:42;;;;;;;1.23;0.70;;;;;;;9.39;63.61;99519.13;5094304;28;20524;-71
2022/02/20 11:24:11;;;;;;;1.20;0.70;;;;;;;9.29;63.53;99509.78;5095271;28;20036;-72
2022/02/20 11:26:43;;;;;;;1.98;0.90;;;;;;;9.25;63.58;99509.78;5094039;28;20516;-72
2022/02/20 11:29:13;;;;;;;1.55;0.80;;;;;;;9.21;62.83;99503.81;5095267;28;20051;-72
2022/02/20 11:31:42;;;;;;;;;;;;;;;9.16;63.28;99504.66;5095855;28;20105;-72
2022/02/20 11:34:12;;;;;;;2.17;1.00;;;;;;;9.13;62.86;99504.66;5095138;28;19926;-72
2022/02/20 11:36:51;;;;;;;2.15;0.90;;;;;;;9.08;63.16;99491.91;5095098;28;20047;-71
2022/02/20 11:39:20;;;;;;;1.50;0.80;;;;;;;9.05;63.38;99497.00;5095266;28;20048;-73
2022/02/20 11:42:17;;;;;;;1.95;0.90;;;;;;;8.96;63.02;99489.34;5095237;28;20044;-73
2022/02/20 11:44:48;;;;;;;1.92;0.90;;;;;;;8.94;63.01;99485.94;5095080;28;20044;-72
2022/02/20 11:47:40;;;;;;;2.95;1.20;;;;;;;8.97;63.52;99480.03;5094881;28;20565;-72
2022/02/20 11:50:37;;;;;;;1.85;0.88;;;;;;;9.00;63.54;99487.66;5095457;28;20379;-73
2022/02/20 11:53:10;;;;;;;2.83;1.00;;;;;;;9.04;63.59;99480.03;5095095;28;20169;-74
2022/02/20 11:55:41;;;;;;;1.10;0.80;;;;;;;9.14;62.50;99476.63;5095026;28;20040;-72
2022/02/20 11:58:24;;;;;;;2.30;0.90;;;;;;;9.28;63.27;99487.72;5094420;28;20109;-73
2022/02/20 12:01:12;;;;;;;3.45;1.00;;;;;;;9.36;62.87;99483.47;5095026;28;20048;-72
2022/02/20 12:04:03;;;;;;;4.45;0.82;;;;;;;9.50;63.06;99480.09;5093396;28;20062;-72
2022/02/20 12:06:37;;;;;;;3.13;0.93;;;;;;;9.76;62.62;99468.19;5094283;28;20048;-71
2022/02/20 12:09:27;;;;;;;3.40;1.20;;;;;;;10.29;61.25;99474.06;5094395;28;20123;-71